Aeroporto :
LOGIN :

Iscrizione | Disclaimer

   EN    FR    IT 

 










Sommario :    VFR   VFR Marginale   IFR   IFR Intensivo   IFR Molto Intensivo
Visibilità : 
Base nubi : 
>= 8 km
>= 3000ft
5 / 8 km
1000 / 3000 ft
1500m / 5 km
500 / 1000 ft
800 / 1500m
200 / 500 ft
< 800m
< 200 ft
Simboli :   Temporali  Nebbia  Neve Forte  Precipitazioni Forti  Vento > 20 kt
SIGMETs :   Varie  Temporali  Ghiacco  Turbolenza  Onda orograficha  Ceneri Vulcaniche






- Altitudine del aeroporto : 412 ft
- Codice IATA : ORE


LFOJ - Orleans

ULTIMO METAR :
  • 250730Z AUTO 00000KT 2800 BR NSC M01/M01 Q1020

METARs OBSOLETI :
  • 250700Z AUTO 00000KT 3300 BR NSC M01/M01 Q1020
  • 250630Z AUTO 00000KT 3200 BR NSC M02/M02 Q1019
  • 250600Z AUTO 00000KT 3200 BR NSC M02/M02 Q1019
  • 250530Z AUTO 00000KT 3100 BR NSC M01/M01 Q1019
  • 250500Z AUTO 00000KT 3300 BR NSC M01/M01 Q1019

TAF TAF LFOJ
Valido dal 24 a 15 ore il 25 a 15 ore UTC


241400Z 2415/2515 05005KT 7000 SCT009
BECMG 2419/2421 3000 BR OVC005
PROB30
TEMPO 2423/2509 0500 FG VV///
BECMG 2510/2512 8000 NSW BKN008



MetMap, La meteo Aeronautica in un colpo d'occhio ! - Copyright ORBIFLY Dicembre 2007 - Disclaimer

ORBIFLY MET'MAP TEAM :

Programmazione e sviluppo : Alexandra Zaïnal
Concezione : Baudouin d'Aumeries
Aiuto per la programmazione : Marc-Olivier Méhu
Supporto tecnico e logistico : Manuel Goepfert
Aiuto per la traduzione : Arnaldo La Scala

Contatto : metmap@orbifly.com




FONTI E CREDITI :

   NOAA